PGT365M EDDW-LTFJ
Flight info
| Callsign | PGT365M |
|---|---|
| Flight time | N/A |
| Altitude | 37000 |
| Route | NIE2M NIE Z88 SAS DCT ZUCKA DCT OMELO DCT MAVOR DCT TEGRI DCT SODGO DCT XANEX DCT ADORU UM19 IBODU |
| Aircraft | A20N/M-SDE2E3FGHIRWXY/LB1 |
Departure
| Time | 2026-04-28 11:53 |
|---|---|
| Airport | Bremen Airport (EDDW) |
Arrival
| Time | N/A |
|---|---|
| Airport | Istanbul Sabiha Gökçen International Airport (LTFJ) |
| Time | Latitude | Longitude | Altitude | Speed | Heading |
|---|---|---|---|---|---|
| 2026-04-28 11:20 | 53.05203 | 8.78474 | 22 ft | 0 kts | 35° |
| 2026-04-28 11:45 | 53.05194 | 8.78463 | 22 ft | 4 kts | 33° |
| 2026-04-28 11:45 | 53.05171 | 8.78440 | 24 ft | 4 kts | 25° |
| 2026-04-28 11:46 | 53.05146 | 8.78426 | 25 ft | 4 kts | 359° |
| 2026-04-28 11:46 | 53.05128 | 8.78435 | 24 ft | 0 kts | 307° |
| 2026-04-28 11:49 | 53.05134 | 8.78421 | 25 ft | 3 kts | 305° |
| 2026-04-28 11:49 | 53.05150 | 8.78380 | 24 ft | 6 kts | 301° |
| 2026-04-28 11:49 | 53.05171 | 8.78306 | 22 ft | 9 kts | 290° |
| 2026-04-28 11:49 | 53.05189 | 8.78195 | 21 ft | 11 kts | 284° |
| 2026-04-28 11:50 | 53.05181 | 8.78054 | 21 ft | 14 kts | 250° |
| 2026-04-28 11:50 | 53.05125 | 8.77909 | 21 ft | 16 kts | 228° |
| 2026-04-28 11:50 | 53.05042 | 8.77759 | 21 ft | 19 kts | 227° |
| 2026-04-28 11:50 | 53.04948 | 8.77589 | 22 ft | 21 kts | 225° |
| 2026-04-28 11:51 | 53.04819 | 8.77469 | 22 ft | 14 kts | 200° |
| 2026-04-28 11:51 | 53.04812 | 8.77466 | 24 ft | 1 kts | 195° |
| 2026-04-28 11:51 | 53.04806 | 8.77463 | 24 ft | 2 kts | 195° |
| 2026-04-28 11:51 | 53.04764 | 8.77453 | 23 ft | 12 kts | 185° |
| 2026-04-28 11:52 | 53.04666 | 8.77502 | 21 ft | 13 kts | 134° |
| 2026-04-28 11:52 | 53.04659 | 8.77564 | 20 ft | 5 kts | 88° |
| 2026-04-28 11:52 | 53.04660 | 8.77588 | 20 ft | 1 kts | 87° |
| 2026-04-28 11:52 | 53.04662 | 8.77656 | 20 ft | 24 kts | 88° |
| 2026-04-28 11:53 | 53.04678 | 8.78363 | 22 ft | 96 kts | 88° |
| 2026-04-28 11:53 | 53.04710 | 8.79800 | 93 ft | 144 kts | 87° |
| 2026-04-28 11:53 | 53.04741 | 8.81443 | 794 ft | 143 kts | 85° |
| 2026-04-28 11:53 | 53.04774 | 8.83113 | 1559 ft | 143 kts | 86° |
| 2026-04-28 11:54 | 53.04815 | 8.84798 | 2290 ft | 152 kts | 85° |
| 2026-04-28 11:54 | 53.04736 | 8.86670 | 2786 ft | 176 kts | 105° |
| 2026-04-28 11:54 | 53.04119 | 8.88557 | 3291 ft | 200 kts | 126° |
| 2026-04-28 11:54 | 53.03020 | 8.90179 | 3727 ft | 225 kts | 143° |
| 2026-04-28 11:55 | 53.01618 | 8.91564 | 4304 ft | 243 kts | 144° |
| 2026-04-28 11:55 | 53.00154 | 8.93142 | 4921 ft | 256 kts | 142° |
| 2026-04-28 11:55 | 52.98680 | 8.94835 | 5842 ft | 259 kts | 141° |
| 2026-04-28 11:55 | 52.97191 | 8.96588 | 6668 ft | 266 kts | 140° |
| 2026-04-28 11:56 | 52.95665 | 8.98405 | 7444 ft | 272 kts | 141° |
| 2026-04-28 11:56 | 52.94115 | 9.00253 | 8283 ft | 277 kts | 140° |
| 2026-04-28 11:56 | 52.92537 | 9.02123 | 9159 ft | 280 kts | 141° |
| 2026-04-28 11:56 | 52.90935 | 9.04022 | 9954 ft | 287 kts | 141° |
| 2026-04-28 11:57 | 52.89309 | 9.05944 | 10776 ft | 290 kts | 142° |
| 2026-04-28 11:57 | 52.87598 | 9.07961 | 11099 ft | 312 kts | 142° |
| 2026-04-28 11:57 | 52.85784 | 9.10101 | 11355 ft | 334 kts | 142° |
| 2026-04-28 11:57 | 52.83865 | 9.12365 | 11934 ft | 344 kts | 143° |
| 2026-04-28 11:58 | 52.81898 | 9.14673 | 12696 ft | 348 kts | 142° |
| 2026-04-28 11:58 | 52.79902 | 9.17011 | 13352 ft | 354 kts | 142° |
| 2026-04-28 11:58 | 52.77873 | 9.19385 | 14071 ft | 359 kts | 143° |
| 2026-04-28 11:58 | 52.75826 | 9.21778 | 14806 ft | 362 kts | 143° |
| 2026-04-28 11:59 | 52.73777 | 9.24170 | 15437 ft | 365 kts | 143° |
| 2026-04-28 11:59 | 52.71694 | 9.26603 | 16114 ft | 368 kts | 143° |
| 2026-04-28 11:59 | 52.69593 | 9.29055 | 16760 ft | 372 kts | 143° |
| 2026-04-28 11:59 | 52.67466 | 9.31534 | 17374 ft | 376 kts | 143° |
| 2026-04-28 12:00 | 52.65307 | 9.34045 | 17875 ft | 385 kts | 142° |
| 2026-04-28 12:00 | 52.63105 | 9.36608 | 18527 ft | 387 kts | 143° |
| 2026-04-28 12:00 | 52.60973 | 9.39392 | 18942 ft | 394 kts | 138° |
| 2026-04-28 12:00 | 52.58884 | 9.42288 | 19646 ft | 392 kts | 138° |
| 2026-04-28 12:01 | 52.56786 | 9.45190 | 20176 ft | 397 kts | 138° |
| 2026-04-28 12:01 | 52.54645 | 9.48144 | 20519 ft | 405 kts | 138° |
| 2026-04-28 12:01 | 52.52481 | 9.51123 | 21143 ft | 405 kts | 138° |
| 2026-04-28 12:01 | 52.50343 | 9.54058 | 21776 ft | 406 kts | 138° |
| 2026-04-28 12:02 | 52.48160 | 9.57051 | 22325 ft | 408 kts | 139° |
| 2026-04-28 12:02 | 52.45963 | 9.60054 | 22792 ft | 414 kts | 139° |
| 2026-04-28 12:02 | 52.43732 | 9.63102 | 23208 ft | 418 kts | 139° |
| 2026-04-28 12:02 | 52.41505 | 9.66140 | 23895 ft | 417 kts | 139° |
| 2026-04-28 12:03 | 52.39250 | 9.69210 | 24195 ft | 424 kts | 139° |
| 2026-04-28 12:03 | 52.36988 | 9.72287 | 24778 ft | 422 kts | 139° |
| 2026-04-28 12:03 | 52.34738 | 9.75344 | 25175 ft | 426 kts | 139° |
| 2026-04-28 12:03 | 52.32428 | 9.78478 | 25398 ft | 434 kts | 139° |
| 2026-04-28 12:04 | 52.30114 | 9.81614 | 26015 ft | 429 kts | 139° |
| 2026-04-28 12:04 | 52.27805 | 9.84736 | 26412 ft | 433 kts | 139° |
| 2026-04-28 12:04 | 52.25484 | 9.87911 | 26659 ft | 439 kts | 136° |
| 2026-04-28 12:04 | 52.23336 | 9.91492 | 26968 ft | 442 kts | 130° |
| 2026-04-28 12:05 | 52.21280 | 9.95194 | 27529 ft | 439 kts | 131° |
| 2026-04-28 12:05 | 52.19217 | 9.98889 | 27887 ft | 443 kts | 131° |
| 2026-04-28 12:05 | 52.17162 | 10.02556 | 28264 ft | 444 kts | 131° |
| 2026-04-28 12:05 | 52.15069 | 10.06278 | 28592 ft | 447 kts | 131° |
| 2026-04-28 12:06 | 52.12957 | 10.10028 | 28838 ft | 451 kts | 131° |
| 2026-04-28 12:06 | 52.10835 | 10.13791 | 29238 ft | 451 kts | 131° |
| 2026-04-28 12:06 | 52.08699 | 10.17572 | 29461 ft | 456 kts | 131° |
| 2026-04-28 12:06 | 52.06547 | 10.21386 | 29659 ft | 460 kts | 132° |
| 2026-04-28 12:07 | 52.04378 | 10.25219 | 29993 ft | 461 kts | 133° |
| 2026-04-28 12:07 | 52.02215 | 10.29032 | 30233 ft | 465 kts | 133° |
| 2026-04-28 12:07 | 52.00021 | 10.32890 | 30627 ft | 464 kts | 133° |
| 2026-04-28 12:07 | 51.97817 | 10.36764 | 30736 ft | 471 kts | 133° |
| 2026-04-28 12:08 | 51.95586 | 10.40678 | 30962 ft | 473 kts | 133° |
| 2026-04-28 12:08 | 51.93349 | 10.44596 | 31235 ft | 475 kts | 133° |
| 2026-04-28 12:08 | 51.91089 | 10.48548 | 31473 ft | 476 kts | 133° |
| 2026-04-28 12:08 | 51.88833 | 10.52488 | 31904 ft | 474 kts | 133° |
| 2026-04-28 12:09 | 51.86587 | 10.56404 | 32209 ft | 475 kts | 133° |
| 2026-04-28 12:09 | 51.84375 | 10.60255 | 32588 ft | 473 kts | 133° |
| 2026-04-28 12:09 | 51.82126 | 10.64162 | 32916 ft | 472 kts | 133° |
| 2026-04-28 12:09 | 51.79888 | 10.68046 | 33155 ft | 474 kts | 133° |
| 2026-04-28 12:10 | 51.77645 | 10.71935 | 33550 ft | 471 kts | 134° |
| 2026-04-28 12:10 | 51.75408 | 10.75806 | 33803 ft | 473 kts | 134° |
| 2026-04-28 12:10 | 51.73155 | 10.79695 | 34050 ft | 473 kts | 134° |
| 2026-04-28 12:10 | 51.70904 | 10.83576 | 34341 ft | 473 kts | 134° |
| 2026-04-28 12:11 | 51.68780 | 10.87634 | 34570 ft | 473 kts | 127° |
| 2026-04-28 12:11 | 51.66979 | 10.92072 | 34782 ft | 474 kts | 119° |
| 2026-04-28 12:11 | 51.65523 | 10.96824 | 34986 ft | 474 kts | 112° |
| 2026-04-28 12:11 | 51.64309 | 11.01685 | 35186 ft | 474 kts | 111° |
| 2026-04-28 12:12 | 51.63080 | 11.06601 | 35394 ft | 474 kts | 111° |
| 2026-04-28 12:12 | 51.61839 | 11.11531 | 35605 ft | 473 kts | 112° |
| 2026-04-28 12:12 | 51.60597 | 11.16434 | 35803 ft | 474 kts | 112° |
| 2026-04-28 12:12 | 51.59346 | 11.21355 | 35918 ft | 476 kts | 112° |
| 2026-04-28 12:13 | 51.58090 | 11.26277 | 36106 ft | 476 kts | 112° |
| 2026-04-28 12:13 | 51.56832 | 11.31194 | 36314 ft | 475 kts | 112° |
| 2026-04-28 12:13 | 51.55574 | 11.36100 | 36487 ft | 475 kts | 112° |
| 2026-04-28 12:13 | 51.54313 | 11.41010 | 36672 ft | 475 kts | 112° |
| 2026-04-28 12:14 | 51.53049 | 11.45919 | 36832 ft | 475 kts | 112° |
| 2026-04-28 12:14 | 51.51786 | 11.50816 | 36991 ft | 475 kts | 112° |
| 2026-04-28 12:14 | 51.50521 | 11.55711 | 37145 ft | 475 kts | 112° |
| 2026-04-28 12:14 | 51.49253 | 11.60601 | 37291 ft | 475 kts | 112° |
| 2026-04-28 12:15 | 51.46699 | 11.70425 | 37290 ft | 476 kts | 112° |
| 2026-04-28 12:15 | 51.44158 | 11.80158 | 37288 ft | 477 kts | 112° |
| 2026-04-28 12:16 | 51.41584 | 11.89975 | 37287 ft | 477 kts | 112° |
| 2026-04-28 12:16 | 51.39004 | 11.99772 | 37289 ft | 477 kts | 112° |
| 2026-04-28 12:17 | 51.36417 | 12.09554 | 37271 ft | 477 kts | 112° |
| 2026-04-28 12:17 | 51.33838 | 12.19268 | 37282 ft | 478 kts | 112° |
| 2026-04-28 12:18 | 51.31227 | 12.29052 | 37270 ft | 478 kts | 112° |
| 2026-04-28 12:18 | 51.28608 | 12.38829 | 37268 ft | 478 kts | 113° |
| 2026-04-28 12:19 | 51.25980 | 12.48600 | 37290 ft | 479 kts | 113° |
| 2026-04-28 12:19 | 51.23333 | 12.58393 | 37270 ft | 480 kts | 113° |
| 2026-04-28 12:20 | 51.20697 | 12.68112 | 37264 ft | 480 kts | 113° |
| 2026-04-28 12:20 | 51.18029 | 12.77905 | 37268 ft | 481 kts | 113° |
| 2026-04-28 12:21 | 51.15349 | 12.87702 | 37272 ft | 482 kts | 113° |
| 2026-04-28 12:21 | 51.12659 | 12.97491 | 37266 ft | 483 kts | 113° |
| 2026-04-28 12:22 | 51.09960 | 13.07275 | 37262 ft | 483 kts | 113° |
| 2026-04-28 12:22 | 51.07259 | 13.17024 | 37262 ft | 484 kts | 113° |
| 2026-04-28 12:23 | 51.04535 | 13.26818 | 37255 ft | 484 kts | 114° |
| 2026-04-28 12:23 | 51.01799 | 13.36610 | 37256 ft | 485 kts | 114° |
| 2026-04-28 12:24 | 50.99049 | 13.46410 | 37257 ft | 486 kts | 114° |
| 2026-04-28 12:24 | 50.96307 | 13.56146 | 37261 ft | 486 kts | 114° |
| 2026-04-28 12:25 | 50.93987 | 13.64351 | 37266 ft | 487 kts | 114° |
| 2026-04-28 12:25 | 50.91209 | 13.74140 | 37263 ft | 487 kts | 114° |
| 2026-04-28 12:26 | 50.88440 | 13.83854 | 37257 ft | 487 kts | 114° |
| 2026-04-28 12:26 | 50.85636 | 13.93611 | 37248 ft | 487 kts | 116° |
| 2026-04-28 12:27 | 50.82203 | 14.02793 | 37225 ft | 484 kts | 127° |
| 2026-04-28 12:27 | 50.77941 | 14.11039 | 37227 ft | 484 kts | 131° |
| 2026-04-28 12:28 | 50.73588 | 14.19153 | 37229 ft | 485 kts | 131° |
| 2026-04-28 12:28 | 50.69238 | 14.27271 | 37201 ft | 486 kts | 131° |
| 2026-04-28 12:29 | 50.62643 | 14.39516 | 37220 ft | 489 kts | 132° |
| 2026-04-28 12:30 | 50.58245 | 14.47645 | 37216 ft | 486 kts | 132° |
| 2026-04-28 12:30 | 50.53844 | 14.55752 | 37230 ft | 488 kts | 132° |
| 2026-04-28 12:31 | 50.49454 | 14.63815 | 37214 ft | 488 kts | 132° |
| 2026-04-28 12:31 | 50.45034 | 14.71909 | 37207 ft | 488 kts | 132° |
| 2026-04-28 12:32 | 50.40599 | 14.80003 | 37207 ft | 488 kts | 132° |
| 2026-04-28 12:32 | 50.36162 | 14.88078 | 37206 ft | 488 kts | 132° |
| 2026-04-28 12:33 | 50.31750 | 14.96079 | 37197 ft | 489 kts | 133° |
| 2026-04-28 12:33 | 50.27289 | 15.04145 | 37198 ft | 489 kts | 133° |
| 2026-04-28 12:34 | 50.22826 | 15.12188 | 37201 ft | 490 kts | 133° |
| 2026-04-28 12:34 | 50.18354 | 15.20224 | 37212 ft | 490 kts | 133° |
| 2026-04-28 12:35 | 50.13893 | 15.28216 | 37230 ft | 491 kts | 133° |
| 2026-04-28 12:35 | 50.09389 | 15.36259 | 37213 ft | 492 kts | 133° |
| 2026-04-28 12:36 | 50.04877 | 15.44292 | 37214 ft | 492 kts | 133° |
| 2026-04-28 12:36 | 50.00390 | 15.52255 | 37220 ft | 492 kts | 133° |
| 2026-04-28 12:37 | 49.95857 | 15.60275 | 37219 ft | 493 kts | 133° |
| 2026-04-28 12:37 | 49.91324 | 15.68270 | 37219 ft | 493 kts | 133° |
| 2026-04-28 12:38 | 49.86781 | 15.76258 | 37212 ft | 494 kts | 133° |
| 2026-04-28 12:38 | 49.82233 | 15.84231 | 37211 ft | 494 kts | 133° |
| 2026-04-28 12:39 | 49.77673 | 15.92199 | 37207 ft | 494 kts | 133° |
| 2026-04-28 12:39 | 49.73146 | 16.00088 | 37213 ft | 493 kts | 133° |
| 2026-04-28 12:40 | 49.68577 | 16.08023 | 37199 ft | 494 kts | 133° |
| 2026-04-28 12:40 | 49.64001 | 16.15946 | 37198 ft | 494 kts | 133° |
| 2026-04-28 12:41 | 49.59425 | 16.23845 | 37200 ft | 494 kts | 134° |
| 2026-04-28 12:41 | 49.54863 | 16.31695 | 37197 ft | 494 kts | 134° |
| 2026-04-28 12:42 | 49.50267 | 16.39582 | 37194 ft | 495 kts | 134° |
| 2026-04-28 12:42 | 49.45662 | 16.47461 | 37186 ft | 494 kts | 134° |
| 2026-04-28 12:43 | 49.41062 | 16.55305 | 37201 ft | 494 kts | 134° |
| 2026-04-28 12:43 | 49.36458 | 16.63132 | 37209 ft | 494 kts | 134° |
| 2026-04-28 12:44 | 49.31842 | 16.70957 | 37198 ft | 495 kts | 134° |
| 2026-04-28 12:44 | 49.27221 | 16.78766 | 37192 ft | 495 kts | 134° |
| 2026-04-28 12:45 | 49.22594 | 16.86562 | 37195 ft | 495 kts | 134° |
| 2026-04-28 12:45 | 49.17958 | 16.94350 | 37197 ft | 495 kts | 134° |
| 2026-04-28 12:46 | 49.13325 | 17.02110 | 37180 ft | 494 kts | 134° |
| 2026-04-28 12:46 | 49.08709 | 17.09818 | 37182 ft | 494 kts | 134° |
| 2026-04-28 12:47 | 49.04064 | 17.17551 | 37183 ft | 495 kts | 135° |
| 2026-04-28 12:47 | 48.99411 | 17.25275 | 37183 ft | 495 kts | 135° |
| 2026-04-28 12:48 | 48.94747 | 17.32994 | 37182 ft | 495 kts | 135° |
| 2026-04-28 12:48 | 48.90080 | 17.40695 | 37184 ft | 495 kts | 135° |
| 2026-04-28 12:49 | 48.85405 | 17.48395 | 37156 ft | 496 kts | 135° |
| 2026-04-28 12:49 | 48.80649 | 17.55959 | 37166 ft | 494 kts | 139° |
| 2026-04-28 12:50 | 48.75724 | 17.63266 | 37165 ft | 495 kts | 137° |
| 2026-04-28 12:50 | 48.70861 | 17.70546 | 37155 ft | 495 kts | 137° |
| 2026-04-28 12:51 | 48.65946 | 17.77869 | 37162 ft | 495 kts | 138° |
| 2026-04-28 12:51 | 48.61022 | 17.85167 | 37157 ft | 496 kts | 138° |
| 2026-04-28 12:52 | 48.56084 | 17.92457 | 37164 ft | 496 kts | 138° |
| 2026-04-28 12:52 | 48.51139 | 17.99738 | 37150 ft | 497 kts | 138° |
| 2026-04-28 12:53 | 48.46186 | 18.07011 | 37147 ft | 498 kts | 138° |
| 2026-04-28 12:53 | 48.41249 | 18.14238 | 37153 ft | 498 kts | 138° |
| 2026-04-28 12:54 | 48.36270 | 18.21504 | 37154 ft | 499 kts | 138° |
| 2026-04-28 12:54 | 48.31288 | 18.28756 | 37158 ft | 499 kts | 138° |
| 2026-04-28 12:55 | 48.26291 | 18.36009 | 37125 ft | 500 kts | 139° |
| 2026-04-28 12:55 | 48.21262 | 18.43287 | 37143 ft | 501 kts | 139° |
| 2026-04-28 12:56 | 48.16239 | 18.50535 | 37141 ft | 501 kts | 139° |
| 2026-04-28 12:56 | 48.11212 | 18.57768 | 37138 ft | 501 kts | 139° |
| 2026-04-28 12:57 | 48.06185 | 18.64981 | 37134 ft | 500 kts | 139° |
| 2026-04-28 12:57 | 48.01182 | 18.72140 | 37128 ft | 499 kts | 139° |
| 2026-04-28 12:58 | 47.96157 | 18.79309 | 37098 ft | 499 kts | 139° |
| 2026-04-28 12:58 | 47.91106 | 18.86494 | 37133 ft | 504 kts | 139° |
| 2026-04-28 12:59 | 47.86054 | 18.93661 | 37139 ft | 504 kts | 139° |
| 2026-04-28 12:59 | 47.80971 | 19.00851 | 37130 ft | 503 kts | 139° |
| 2026-04-28 13:00 | 47.75889 | 19.08020 | 37132 ft | 503 kts | 139° |
| 2026-04-28 13:00 | 47.70798 | 19.15181 | 37144 ft | 504 kts | 139° |
| 2026-04-28 13:01 | 47.65701 | 19.22331 | 37138 ft | 504 kts | 140° |
| 2026-04-28 13:01 | 47.60597 | 19.29469 | 37142 ft | 504 kts | 140° |
| 2026-04-28 13:02 | 47.55484 | 19.36599 | 37148 ft | 505 kts | 140° |
| 2026-04-28 13:02 | 47.50404 | 19.43665 | 37153 ft | 505 kts | 140° |
| 2026-04-28 13:03 | 47.45274 | 19.50779 | 37151 ft | 505 kts | 140° |
| 2026-04-28 13:03 | 47.40140 | 19.57880 | 37149 ft | 505 kts | 140° |
| 2026-04-28 13:04 | 47.35004 | 19.64964 | 37134 ft | 505 kts | 140° |
| 2026-04-28 13:04 | 47.29861 | 19.72037 | 37133 ft | 506 kts | 140° |
| 2026-04-28 13:05 | 47.24697 | 19.79119 | 37140 ft | 506 kts | 140° |
| 2026-04-28 13:05 | 47.19534 | 19.86179 | 37148 ft | 507 kts | 140° |
| 2026-04-28 13:06 | 47.14379 | 19.93210 | 37157 ft | 508 kts | 140° |
| 2026-04-28 13:06 | 47.09200 | 20.00255 | 37155 ft | 508 kts | 140° |
| 2026-04-28 13:07 | 47.04001 | 20.07306 | 37155 ft | 508 kts | 140° |
| 2026-04-28 13:07 | 46.98805 | 20.14333 | 37148 ft | 508 kts | 140° |
| 2026-04-28 13:08 | 46.93623 | 20.21325 | 37138 ft | 506 kts | 140° |
| 2026-04-28 13:08 | 46.88463 | 20.28265 | 37135 ft | 506 kts | 140° |
| 2026-04-28 13:09 | 46.83273 | 20.35226 | 37135 ft | 506 kts | 140° |
| 2026-04-28 13:09 | 46.78078 | 20.42176 | 37133 ft | 507 kts | 140° |
| 2026-04-28 13:10 | 46.72863 | 20.49132 | 37140 ft | 507 kts | 140° |
| 2026-04-28 13:10 | 46.67675 | 20.56036 | 37145 ft | 508 kts | 140° |
| 2026-04-28 13:11 | 46.62452 | 20.62966 | 37135 ft | 507 kts | 140° |
| 2026-04-28 13:11 | 46.57234 | 20.69870 | 37138 ft | 506 kts | 140° |
| 2026-04-28 13:12 | 46.52003 | 20.76772 | 37108 ft | 507 kts | 140° |
| 2026-04-28 13:12 | 46.46812 | 20.83604 | 37130 ft | 506 kts | 140° |
| 2026-04-28 13:13 | 46.41589 | 20.90460 | 37131 ft | 506 kts | 141° |
| 2026-04-28 13:13 | 46.37237 | 20.96156 | 37139 ft | 507 kts | 140° |
| 2026-04-28 13:14 | 46.32007 | 21.02993 | 37135 ft | 507 kts | 140° |
| 2026-04-28 13:14 | 46.26766 | 21.09830 | 37135 ft | 507 kts | 141° |
| 2026-04-28 13:15 | 46.21510 | 21.16623 | 37134 ft | 506 kts | 141° |
| 2026-04-28 13:15 | 46.16253 | 21.23378 | 37140 ft | 506 kts | 141° |
| 2026-04-28 13:16 | 46.10996 | 21.30128 | 37137 ft | 506 kts | 141° |
| 2026-04-28 13:16 | 46.05760 | 21.36836 | 37141 ft | 506 kts | 141° |
| 2026-04-28 13:17 | 46.00492 | 21.43567 | 37143 ft | 506 kts | 141° |
| 2026-04-28 13:17 | 45.95226 | 21.50278 | 37135 ft | 506 kts | 141° |
| 2026-04-28 13:18 | 45.89973 | 21.56955 | 37131 ft | 503 kts | 141° |
| 2026-04-28 13:18 | 45.84719 | 21.63614 | 37128 ft | 503 kts | 141° |
| 2026-04-28 13:19 | 45.79463 | 21.70260 | 37129 ft | 503 kts | 141° |
| 2026-04-28 13:19 | 45.74209 | 21.76884 | 37120 ft | 503 kts | 141° |
| 2026-04-28 13:20 | 45.68955 | 21.83493 | 37119 ft | 503 kts | 141° |
| 2026-04-28 13:20 | 45.63724 | 21.90056 | 37122 ft | 502 kts | 141° |
| 2026-04-28 13:21 | 45.58459 | 21.96643 | 37119 ft | 502 kts | 141° |
| 2026-04-28 13:21 | 45.53199 | 22.03206 | 37119 ft | 502 kts | 141° |
| 2026-04-28 13:22 | 45.47937 | 22.09757 | 37120 ft | 502 kts | 141° |
| 2026-04-28 13:22 | 45.42669 | 22.16298 | 37114 ft | 502 kts | 141° |
| 2026-04-28 13:23 | 45.37405 | 22.22817 | 37092 ft | 500 kts | 141° |
| 2026-04-28 13:23 | 45.32208 | 22.29238 | 37099 ft | 497 kts | 141° |
| 2026-04-28 13:24 | 45.26971 | 22.35689 | 37095 ft | 498 kts | 141° |
| 2026-04-28 13:24 | 45.21735 | 22.42125 | 37090 ft | 498 kts | 141° |
| 2026-04-28 13:25 | 45.16482 | 22.48563 | 37087 ft | 498 kts | 141° |
| 2026-04-28 13:25 | 45.11290 | 22.54913 | 37079 ft | 495 kts | 142° |
| 2026-04-28 13:26 | 45.06069 | 22.61280 | 37087 ft | 495 kts | 142° |
| 2026-04-28 13:26 | 45.00847 | 22.67637 | 37091 ft | 495 kts | 142° |
| 2026-04-28 13:27 | 44.95611 | 22.73990 | 37073 ft | 496 kts | 142° |
| 2026-04-28 13:27 | 44.90363 | 22.80343 | 37079 ft | 497 kts | 142° |
| 2026-04-28 13:28 | 44.85110 | 22.86716 | 37068 ft | 498 kts | 141° |
| 2026-04-28 13:28 | 44.80022 | 22.93208 | 37073 ft | 495 kts | 140° |
| 2026-04-28 13:29 | 44.74932 | 22.99739 | 37077 ft | 496 kts | 140° |
| 2026-04-28 13:29 | 44.69809 | 23.06252 | 37072 ft | 495 kts | 140° |
| 2026-04-28 13:30 | 44.64690 | 23.12729 | 37078 ft | 495 kts | 140° |
| 2026-04-28 13:30 | 44.59587 | 23.19167 | 37082 ft | 496 kts | 140° |
| 2026-04-28 13:31 | 44.51876 | 23.28868 | 37076 ft | 494 kts | 140° |
| 2026-04-28 13:31 | 44.46754 | 23.35292 | 37077 ft | 494 kts | 140° |
| 2026-04-28 13:32 | 44.41628 | 23.41705 | 37084 ft | 494 kts | 140° |
| 2026-04-28 13:32 | 44.36527 | 23.48070 | 37080 ft | 494 kts | 140° |
| 2026-04-28 13:33 | 44.31381 | 23.54478 | 37078 ft | 495 kts | 140° |
| 2026-04-28 13:33 | 44.26228 | 23.60877 | 37083 ft | 495 kts | 140° |
| 2026-04-28 13:34 | 44.21118 | 23.67209 | 37081 ft | 495 kts | 140° |
| 2026-04-28 13:34 | 44.15965 | 23.73577 | 37084 ft | 493 kts | 140° |
| 2026-04-28 13:35 | 44.10826 | 23.79914 | 37082 ft | 493 kts | 140° |
| 2026-04-28 13:35 | 44.05682 | 23.86240 | 37085 ft | 493 kts | 140° |
| 2026-04-28 13:36 | 44.00530 | 23.92561 | 37087 ft | 493 kts | 140° |
| 2026-04-28 13:36 | 43.95426 | 23.98809 | 37080 ft | 491 kts | 140° |
| 2026-04-28 13:37 | 43.90300 | 24.05069 | 37072 ft | 490 kts | 140° |
| 2026-04-28 13:37 | 43.85171 | 24.11316 | 37063 ft | 489 kts | 141° |
| 2026-04-28 13:38 | 43.80050 | 24.17540 | 37070 ft | 489 kts | 140° |
| 2026-04-28 13:38 | 43.74962 | 24.23709 | 37068 ft | 488 kts | 141° |
| 2026-04-28 13:39 | 43.69851 | 24.29890 | 37058 ft | 488 kts | 140° |
| 2026-04-28 13:39 | 43.64741 | 24.36058 | 37060 ft | 488 kts | 141° |
| 2026-04-28 13:40 | 43.59622 | 24.42220 | 37071 ft | 488 kts | 141° |
| 2026-04-28 13:40 | 43.54498 | 24.48374 | 37072 ft | 488 kts | 141° |
| 2026-04-28 13:41 | 43.49375 | 24.54513 | 37070 ft | 488 kts | 141° |
| 2026-04-28 13:41 | 43.44240 | 24.60652 | 37064 ft | 489 kts | 141° |
| 2026-04-28 13:42 | 43.39118 | 24.66761 | 37078 ft | 485 kts | 141° |
| 2026-04-28 13:42 | 43.34006 | 24.72844 | 37079 ft | 486 kts | 141° |
| 2026-04-28 13:43 | 43.28888 | 24.78919 | 37078 ft | 486 kts | 141° |
| 2026-04-28 13:43 | 43.23765 | 24.84987 | 37086 ft | 486 kts | 141° |
| 2026-04-28 13:44 | 43.18662 | 24.91019 | 37073 ft | 483 kts | 141° |
| 2026-04-28 13:44 | 43.13609 | 24.96980 | 37058 ft | 481 kts | 141° |